createdAt,value
2022-11-26T00:02:44.222Z,98499.94
2022-11-26T00:05:57.607Z,98500.09
2022-11-26T00:09:06.406Z,98508.44
2022-11-26T00:12:20.274Z,98510.47
2022-11-26T00:15:30.580Z,98516.34
2022-11-26T00:18:36.508Z,98519.53
2022-11-26T00:21:46.400Z,98514.94
2022-11-26T00:24:53.476Z,98514.38
2022-11-26T00:28:02.616Z,98525.94
2022-11-26T00:31:17.640Z,98523.72
2022-11-26T00:34:24.419Z,98531.75
2022-11-26T00:37:46.202Z,98532.97
2022-11-26T00:40:53.105Z,98538.00
2022-11-26T00:43:59.058Z,98532.75
2022-11-26T00:47:06.111Z,98537.91
2022-11-26T00:50:18.706Z,98543.53
2022-11-26T00:53:30.318Z,98551.63
2022-11-26T00:56:38.247Z,98542.50
2022-11-26T00:59:45.212Z,98544.16
2022-11-26T01:02:52.185Z,98552.59
2022-11-26T01:06:02.654Z,98553.56
2022-11-26T01:09:22.238Z,98549.44
2022-11-26T01:12:29.009Z,98563.03
2022-11-26T01:15:34.877Z,98569.34
2022-11-26T01:18:41.796Z,98562.72
2022-11-26T01:21:47.852Z,98564.38
2022-11-26T01:24:57.376Z,98568.94
2022-11-26T01:28:03.487Z,98569.34
2022-11-26T01:31:18.582Z,98567.81
2022-11-26T01:34:24.529Z,98577.53
2022-11-26T01:37:31.374Z,98577.63
2022-11-26T01:41:05.471Z,98576.03
2022-11-26T01:44:22.156Z,98579.56
2022-11-26T01:47:31.731Z,98584.13
2022-11-26T01:51:00.672Z,98580.72
2022-11-26T01:54:07.031Z,98576.72
2022-11-26T01:57:23.938Z,98577.75
2022-11-26T02:00:29.972Z,98574.78
2022-11-26T02:03:47.049Z,98581.31
2022-11-26T02:06:55.239Z,98581.22
2022-11-26T02:10:02.135Z,98576.31
2022-11-26T02:13:10.971Z,98584.44
2022-11-26T02:16:37.200Z,98581.53
2022-11-26T02:20:28.203Z,98585.59
2022-11-26T02:24:12.745Z,98575.44
2022-11-26T02:28:11.870Z,98581.53
2022-11-26T02:31:32.720Z,98577.50
2022-11-26T02:34:51.659Z,98586.09
2022-11-26T02:38:05.918Z,98580.59
2022-11-26T02:41:12.799Z,98587.53
2022-11-26T02:44:24.194Z,98583.69
2022-11-26T02:47:37.668Z,98588.94
2022-11-26T02:50:51.614Z,98594.22
2022-11-26T02:54:00.060Z,98588.44
2022-11-26T02:57:14.947Z,98595.25
2022-11-26T03:00:23.504Z,98598.59
2022-11-26T03:03:41.443Z,98596.63
2022-11-26T03:06:50.965Z,98598.16
2022-11-26T03:10:00.953Z,98598.63
2022-11-26T03:13:07.751Z,98594.59
2022-11-26T03:16:13.694Z,98593.50
2022-11-26T03:19:23.108Z,98598.88
2022-11-26T03:22:29.677Z,98598.84
2022-11-26T03:25:37.014Z,98608.06
2022-11-26T03:28:43.068Z,98607.00
2022-11-26T03:31:49.947Z,98604.56
2022-11-26T03:34:58.574Z,98603.94
2022-11-26T03:38:05.347Z,98611.47
2022-11-26T03:41:11.277Z,98613.41
2022-11-26T03:44:18.459Z,98606.72
2022-11-26T03:47:24.794Z,98612.81
2022-11-26T03:50:34.155Z,98619.25
2022-11-26T03:53:40.035Z,98619.13
2022-11-26T03:56:46.783Z,98607.63
2022-11-26T03:59:52.820Z,98613.66
2022-11-26T04:02:59.683Z,98606.22
2022-11-26T04:06:09.735Z,98608.81
2022-11-26T04:09:16.691Z,98604.81
2022-11-26T04:12:22.736Z,98616.06
2022-11-26T04:15:29.483Z,98612.25
2022-11-26T04:18:36.025Z,98619.09
2022-11-26T04:21:45.635Z,98623.53
2022-11-26T04:24:51.764Z,98634.31
2022-11-26T04:27:59.146Z,98634.94
2022-11-26T04:31:05.141Z,98633.47
2022-11-26T04:34:11.916Z,98627.75
2022-11-26T04:37:20.525Z,98634.19
2022-11-26T04:40:27.250Z,98637.72
2022-11-26T04:43:33.372Z,98642.84
2022-11-26T04:46:40.194Z,98643.16
2022-11-26T04:49:46.181Z,98651.81
2022-11-26T04:52:55.782Z,98650.38
2022-11-26T04:56:01.781Z,98657.31
2022-11-26T04:59:08.502Z,98651.31
2022-11-26T05:02:14.867Z,98646.94
2022-11-26T05:05:21.979Z,98660.50
2022-11-26T05:08:30.537Z,98662.16
2022-11-26T05:11:37.291Z,98666.06
2022-11-26T05:14:43.257Z,98669.22
2022-11-26T05:17:49.969Z,98664.28
2022-11-26T05:20:55.912Z,98673.22
2022-11-26T05:24:05.469Z,98664.66
2022-11-26T05:27:12.435Z,98674.94
2022-11-26T05:30:19.781Z,98678.56
2022-11-26T05:33:25.685Z,98680.78
2022-11-26T05:36:32.371Z,98673.78
2022-11-26T05:39:41.079Z,98678.28
2022-11-26T05:42:48.214Z,98683.63
2022-11-26T05:45:54.193Z,98689.16
2022-11-26T05:49:01.142Z,98695.88
2022-11-26T05:52:07.318Z,98698.44
2022-11-26T05:55:16.731Z,98697.97
2022-11-26T05:58:22.944Z,98703.97
2022-11-26T06:01:29.751Z,98712.34
2022-11-26T06:04:36.726Z,98708.00
2022-11-26T06:07:45.092Z,98720.09
2022-11-26T06:10:53.916Z,98717.22
2022-11-26T06:14:00.639Z,98718.91
2022-11-26T06:17:06.615Z,98720.72
2022-11-26T06:20:15.609Z,98727.66
2022-11-26T06:23:21.604Z,98726.91
2022-11-26T06:26:31.173Z,98728.31
2022-11-26T06:29:37.405Z,98725.84
2022-11-26T06:32:44.217Z,98730.69
2022-11-26T06:35:50.129Z,98730.22
2022-11-26T06:38:56.778Z,98739.13
2022-11-26T06:42:05.319Z,98736.75
2022-11-26T06:45:14.211Z,98738.59
2022-11-26T06:48:20.131Z,98750.59
2022-11-26T06:51:27.974Z,98749.75
2022-11-26T06:54:34.124Z,98754.13
2022-11-26T06:57:43.450Z,98755.22
2022-11-26T07:00:49.397Z,98763.00
2022-11-26T07:03:56.855Z,98759.22
2022-11-26T07:07:02.825Z,98763.59
2022-11-26T07:10:11.395Z,98772.88
2022-11-26T07:13:20.014Z,98772.22
2022-11-26T07:16:28.146Z,98769.88
2022-11-26T07:19:34.217Z,98776.75
2022-11-26T07:22:41.247Z,98781.78
2022-11-26T07:25:47.347Z,98784.31
2022-11-26T07:28:56.982Z,98784.38
2022-11-26T07:32:03.015Z,98790.91
2022-11-26T07:35:11.313Z,98787.28
2022-11-26T07:38:17.418Z,98789.00
2022-11-26T07:41:25.672Z,98785.41
2022-11-26T07:44:34.551Z,98790.72
2022-11-26T07:47:41.523Z,98801.06
2022-11-26T07:50:48.148Z,98804.53
2022-11-26T07:53:56.573Z,98810.78
2022-11-26T07:57:02.521Z,98810.94
2022-11-26T08:00:14.096Z,98815.50
2022-11-26T08:03:20.041Z,98822.94
2022-11-26T08:06:30.484Z,98820.28
2022-11-26T08:09:36.667Z,98827.63
2022-11-26T08:12:43.795Z,98829.97
2022-11-26T08:15:54.223Z,98829.53
2022-11-26T08:19:04.077Z,98828.81
2022-11-26T08:22:10.095Z,98828.53
2022-11-26T08:25:16.925Z,98838.16
2022-11-26T08:28:23.197Z,98831.59
2022-11-26T08:31:35.165Z,98830.81
2022-11-26T08:34:42.300Z,98842.38
2022-11-26T08:37:49.100Z,98836.47
2022-11-26T08:40:55.280Z,98849.56
2022-11-26T08:44:06.517Z,98849.22
2022-11-26T08:47:16.787Z,98849.44
2022-11-26T08:50:23.635Z,98853.84
2022-11-26T08:53:32.427Z,98855.94
2022-11-26T08:56:40.236Z,98854.06
2022-11-26T08:59:46.111Z,98861.94
2022-11-26T09:02:55.511Z,98857.53
2022-11-26T09:06:04.577Z,98864.03
2022-11-26T09:09:15.857Z,98868.00
2022-11-26T09:12:22.092Z,98863.38
2022-11-26T09:15:29.078Z,98865.97
2022-11-26T09:18:37.592Z,98869.50
2022-11-26T09:21:44.442Z,98873.59
2022-11-26T09:24:50.459Z,98877.97
2022-11-26T09:27:57.257Z,98877.44
2022-11-26T09:31:04.880Z,98876.53
2022-11-26T09:34:15.435Z,98872.75
2022-11-26T09:37:21.298Z,98878.78
2022-11-26T09:40:50.649Z,98873.63
2022-11-26T09:44:22.460Z,98881.63
2022-11-26T09:47:38.866Z,98887.56
2022-11-26T09:50:54.005Z,98885.56
2022-11-26T09:54:04.701Z,98886.66
2022-11-26T09:57:30.563Z,98887.97
2022-11-26T10:00:44.174Z,98875.91
2022-11-26T10:03:50.474Z,98881.50
2022-11-26T10:07:17.517Z,98882.84
2022-11-26T10:10:35.408Z,98882.47
2022-11-26T10:13:57.399Z,98886.28
2022-11-26T10:17:29.197Z,98884.88
2022-11-26T10:21:18.210Z,98884.13
2022-11-26T10:24:39.518Z,98887.91
2022-11-26T10:27:47.206Z,98887.28
2022-11-26T10:31:02.727Z,98888.44
2022-11-26T10:34:20.260Z,98879.81
2022-11-26T10:37:29.268Z,98885.09
2022-11-26T10:40:39.421Z,98885.09
2022-11-26T10:43:45.486Z,98890.16
2022-11-26T10:46:52.243Z,98891.41
2022-11-26T10:53:58.697Z,98885.34
2022-11-26T10:57:21.981Z,98882.94
2022-11-26T11:00:42.169Z,98878.94
2022-11-26T11:04:10.772Z,98873.66
2022-11-26T11:07:44.312Z,98876.06
2022-11-26T11:10:59.620Z,98878.50
2022-11-26T11:14:09.051Z,98883.66
2022-11-26T11:17:36.464Z,98886.56
2022-11-26T11:20:55.006Z,98882.50
2022-11-26T11:24:12.363Z,98878.25
2022-11-26T11:27:30.982Z,98882.00
2022-11-26T11:30:43.624Z,98872.16
2022-11-26T11:33:52.155Z,98880.47
2022-11-26T11:37:11.728Z,98880.75
2022-11-26T11:40:27.756Z,98893.06
2022-11-26T11:43:40.040Z,98891.53
2022-11-26T11:47:24.484Z,98892.91
2022-11-26T11:50:39.323Z,98887.28
2022-11-26T11:54:07.713Z,98900.66
2022-11-26T11:57:38.355Z,98905.69
2022-11-26T12:00:58.472Z,98905.91
2022-11-26T12:04:46.341Z,98903.03
2022-11-26T12:08:10.948Z,98905.53
2022-11-26T12:11:41.163Z,98900.66
2022-11-26T12:14:55.453Z,98901.03
2022-11-26T12:18:16.419Z,98906.69
2022-11-26T12:21:42.506Z,98912.19
2022-11-26T12:24:58.035Z,98900.66
2022-11-26T12:28:18.180Z,98911.75
2022-11-26T12:31:35.864Z,98908.28
2022-11-26T12:34:52.947Z,98908.06
2022-11-26T12:38:10.874Z,98917.66
2022-11-26T12:41:27.500Z,98916.00
2022-11-26T12:44:43.091Z,98915.16
2022-11-26T12:48:01.058Z,98923.13
2022-11-26T12:51:27.467Z,98914.38
2022-11-26T12:54:56.929Z,98912.84
2022-11-26T12:58:17.091Z,98921.66
2022-11-26T13:01:24.648Z,98922.63
2022-11-26T13:04:39.435Z,98924.03
2022-11-26T13:08:15.388Z,98921.94
2022-11-26T13:11:43.851Z,98917.88
2022-11-26T13:15:04.108Z,98922.06
2022-11-26T13:18:32.606Z,98927.63
2022-11-26T13:22:04.140Z,98923.75
2022-11-26T13:25:47.592Z,98926.66
2022-11-26T13:29:33.028Z,98925.94
2022-11-26T13:33:32.400Z,98939.88
2022-11-26T13:37:09.550Z,98930.69
2022-11-26T13:40:57.375Z,98936.09
2022-11-26T13:44:42.415Z,98937.63
2022-11-26T13:47:58.154Z,98940.59
2022-11-26T13:51:18.980Z,98937.13
2022-11-26T13:54:33.871Z,98941.41
2022-11-26T13:57:49.355Z,98951.19
2022-11-26T14:00:58.080Z,98952.16
2022-11-26T14:04:08.084Z,98951.31
2022-11-26T14:07:24.134Z,98947.00
2022-11-26T14:10:46.472Z,98953.38
2022-11-26T14:14:37.663Z,98942.13
2022-11-26T14:18:00.339Z,98941.13
2022-11-26T14:21:16.821Z,98954.81
2022-11-26T14:25:02.802Z,98960.25
2022-11-26T14:28:13.406Z,98949.66
2022-11-26T14:31:27.926Z,98957.75
2022-11-26T14:34:44.401Z,98955.25
2022-11-26T14:37:57.024Z,98957.19
2022-11-26T14:41:05.622Z,98960.94
2022-11-26T14:44:17.589Z,98962.28
2022-11-26T14:47:25.771Z,98957.44
2022-11-26T14:50:39.013Z,98964.38
2022-11-26T14:53:51.757Z,98967.72
2022-11-26T14:57:10.518Z,98971.91
2022-11-26T15:00:27.997Z,98968.53
2022-11-26T15:03:35.378Z,98974.09
2022-11-26T15:06:46.336Z,98975.88
2022-11-26T15:10:05.592Z,98984.66
2022-11-26T15:13:26.237Z,98980.91
2022-11-26T15:16:41.680Z,98989.69
2022-11-26T15:19:52.023Z,98992.28
2022-11-26T15:23:03.149Z,98985.00
2022-11-26T15:26:09.949Z,98992.50
2022-11-26T15:29:41.417Z,98988.88
2022-11-26T15:32:47.520Z,98986.06
2022-11-26T15:35:57.520Z,98986.94
2022-11-26T15:39:08.217Z,98990.41
2022-11-26T15:42:32.595Z,98990.69
2022-11-26T15:45:44.568Z,98995.09
2022-11-26T15:48:57.222Z,98995.25
2022-11-26T15:52:09.275Z,98992.09
2022-11-26T15:55:33.257Z,98997.13
2022-11-26T15:58:44.521Z,99001.72
2022-11-26T16:01:54.071Z,99004.63
2022-11-26T16:05:02.342Z,99008.34
2022-11-26T16:08:30.495Z,99010.00
2022-11-26T16:11:39.401Z,99006.63
2022-11-26T16:14:46.592Z,99009.38
2022-11-26T16:17:56.745Z,99015.56
2022-11-26T16:21:11.783Z,99028.56
2022-11-26T16:24:33.751Z,99024.25
2022-11-26T16:27:40.807Z,99021.16
2022-11-26T16:30:48.542Z,99030.66
2022-11-26T16:33:58.917Z,99033.47
2022-11-26T16:37:19.205Z,99043.41
2022-11-26T16:40:27.471Z,99040.91
2022-11-26T16:43:33.826Z,99045.69
2022-11-26T16:46:42.480Z,99043.81
2022-11-26T16:49:51.891Z,99048.09
2022-11-26T16:52:59.244Z,99044.44
2022-11-26T16:56:05.369Z,99050.44
2022-11-26T16:59:28.821Z,99034.28
2022-11-26T17:02:38.167Z,99065.06
2022-11-26T17:05:47.800Z,99065.69
2022-11-26T17:08:55.020Z,99083.81
2022-11-26T17:12:01.900Z,99091.75
2022-11-26T17:15:09.105Z,99095.69
2022-11-26T17:18:22.416Z,99090.28
2022-11-26T17:21:31.158Z,99093.13
2022-11-26T17:24:38.354Z,99097.00
2022-11-26T17:27:45.642Z,99105.66
2022-11-26T17:30:53.732Z,99110.00
2022-11-26T17:33:59.911Z,99115.53
2022-11-26T17:37:16.879Z,99107.72
2022-11-26T17:40:27.293Z,99113.09
2022-11-26T17:43:34.527Z,99116.94
2022-11-26T17:47:08.995Z,99119.25
2022-11-26T17:50:09.973Z,99119.69
2022-11-26T17:53:18.515Z,99122.34
2022-11-26T17:56:27.587Z,99128.81
2022-11-26T17:59:34.108Z,99122.38
2022-11-26T18:02:41.156Z,99122.13
2022-11-26T18:05:47.301Z,99122.63
2022-11-26T18:08:56.733Z,99122.63
2022-11-26T18:12:04.456Z,99130.66
2022-11-26T18:15:12.446Z,99130.88
2022-11-26T18:18:18.454Z,99135.53
2022-11-26T18:21:25.207Z,99144.34
2022-11-26T18:24:34.111Z,99152.94
2022-11-26T18:27:40.924Z,99157.03
2022-11-26T18:30:47.037Z,99158.53
2022-11-26T18:33:54.470Z,99149.78
2022-11-26T18:37:00.481Z,99149.91
2022-11-26T18:40:14.144Z,99145.09
2022-11-26T18:43:20.257Z,99155.44
2022-11-26T18:46:27.307Z,99153.06
2022-11-26T18:49:33.525Z,99165.81
2022-11-26T18:52:43.225Z,99160.97
2022-11-26T18:55:52.061Z,99163.66
2022-11-26T18:58:59.615Z,99166.53
2022-11-26T19:02:06.065Z,99168.56
2022-11-26T19:05:13.053Z,99174.22
2022-11-26T19:08:19.847Z,99166.78
2022-11-26T19:11:30.050Z,99170.31
2022-11-26T19:14:35.948Z,99173.59
2022-11-26T19:17:42.764Z,99171.47
2022-11-26T19:20:55.643Z,99175.84
2022-11-26T19:24:06.517Z,99179.22
2022-11-26T19:27:16.571Z,99172.72
2022-11-26T19:30:23.800Z,99187.56
2022-11-26T19:33:32.672Z,99182.03
2022-11-26T19:36:41.050Z,99174.38
2022-11-26T19:39:47.887Z,99180.47
2022-11-26T19:42:57.378Z,99187.56
2022-11-26T19:46:08.903Z,99194.31
2022-11-26T19:49:17.596Z,99196.69
2022-11-26T19:52:23.584Z,99195.81
2022-11-26T19:55:30.396Z,99196.53
2022-11-26T19:58:40.353Z,99206.13
2022-11-26T20:01:47.284Z,99207.34
2022-11-26T20:04:53.235Z,99211.16
2022-11-26T20:08:00.161Z,99213.69
2022-11-26T20:11:07.683Z,99211.91
2022-11-26T20:14:18.319Z,99216.25
2022-11-26T20:17:24.651Z,99219.34
2022-11-26T20:20:31.374Z,99215.50
2022-11-26T20:23:37.296Z,99214.91
2022-11-26T20:26:48.819Z,99216.69
2022-11-26T20:29:57.288Z,99211.66
2022-11-26T20:33:04.039Z,99220.53
2022-11-26T20:36:13.250Z,99215.56
2022-11-26T20:39:22.501Z,99222.50
2022-11-26T20:42:28.482Z,99224.66
2022-11-26T20:45:38.856Z,99230.19
2022-11-26T20:48:47.596Z,99230.19
2022-11-26T20:51:54.350Z,99232.84
2022-11-26T20:55:00.255Z,99223.72
2022-11-26T20:58:07.031Z,99225.25
2022-11-26T21:01:21.139Z,99237.03
2022-11-26T21:04:27.905Z,99245.19
2022-11-26T21:07:34.004Z,99239.56
2022-11-26T21:10:42.880Z,99227.06
2022-11-26T21:13:49.034Z,99235.22
2022-11-26T21:16:58.426Z,99231.16
2022-11-26T21:20:04.519Z,99242.56
2022-11-26T21:23:13.191Z,99233.50
2022-11-26T21:26:22.157Z,99234.88
2022-11-26T21:29:28.996Z,99235.66
2022-11-26T21:32:37.679Z,99230.38
2022-11-26T21:35:44.598Z,99240.09
2022-11-26T21:38:52.614Z,99246.22
2022-11-26T21:41:59.323Z,99246.63
2022-11-26T21:45:05.466Z,99248.06
2022-11-26T21:48:14.900Z,99247.34
2022-11-26T21:51:22.892Z,99241.22
2022-11-26T21:54:30.683Z,99256.19
2022-11-26T21:57:38.701Z,99246.06
2022-11-26T22:00:47.046Z,99252.19
2022-11-26T22:03:59.235Z,99252.44
2022-11-26T22:07:06.795Z,99253.38
2022-11-26T22:10:14.568Z,99249.63
2022-11-26T22:13:21.337Z,99252.16
2022-11-26T22:16:30.686Z,99253.66
2022-11-26T22:19:40.135Z,99258.16
2022-11-26T22:22:46.263Z,99260.56
2022-11-26T22:25:53.452Z,99259.28
2022-11-26T22:29:00.109Z,99260.94
2022-11-26T22:32:07.433Z,99261.41
2022-11-26T22:35:16.157Z,99251.38
2022-11-26T22:38:22.871Z,99257.47
2022-11-26T22:41:29.511Z,99261.09
2022-11-26T22:44:36.967Z,99254.28
2022-11-26T22:47:42.873Z,99252.03
2022-11-26T22:50:57.171Z,99257.06
2022-11-26T22:54:05.227Z,99259.84
2022-11-26T22:57:12.008Z,99260.94
2022-11-26T23:00:51.818Z,99257.03
2022-11-26T23:04:00.895Z,99256.78
2022-11-26T23:07:09.852Z,99257.09
2022-11-26T23:10:16.698Z,99267.69
2022-11-26T23:13:22.766Z,99259.38
2022-11-26T23:16:31.094Z,99268.13
2022-11-26T23:19:37.233Z,99260.44
2022-11-26T23:22:46.595Z,99257.28
2022-11-26T23:25:52.546Z,99260.66
2022-11-26T23:29:02.006Z,99260.28
2022-11-26T23:32:08.137Z,99259.88
2022-11-26T23:35:15.264Z,99265.09
2022-11-26T23:38:24.048Z,99264.50
2022-11-26T23:41:31.676Z,99255.63
2022-11-26T23:44:37.576Z,99262.38
2022-11-26T23:47:44.204Z,99259.53
2022-11-26T23:50:50.062Z,99246.94
2022-11-26T23:54:00.145Z,99247.75
2022-11-26T23:57:09.249Z,99256.22
